Time;durP1;ratioP1;P1;durP2;ratioP2;P2;SDS_P1;SDS_P2;PMS_P1;PMS_P2;Temp;Humidity;BMP_temperature;BMP_pressure;BME280_temperature;BME280_humidity;BME280_pressure;Samples;Min_cycle;Max_cycle;Signal;HPM_P1;HPM_P2
2023/06/28 00:01:14;;;;;;;5.50;3.10;;;20.30;95.20;;;;;;4994650;28;20468;-66
2023/06/28 00:03:41;;;;;;;2.73;2.30;;;20.10;96.00;;;;;;4994483;28;20456;-66
2023/06/28 00:06:08;;;;;;;4.33;2.63;;;20.00;96.00;;;;;;4994330;28;20910;-66
2023/06/28 00:08:40;;;;;;;4.80;2.80;;;20.00;96.10;;;;;;4994267;28;20452;-66
2023/06/28 00:11:07;;;;;;;4.40;2.80;;;20.00;97.00;;;;;;4994606;28;20852;-66
2023/06/28 00:13:35;;;;;;;3.90;2.90;;;19.90;97.00;;;;;;4992934;28;20488;-66
2023/06/28 00:16:02;;;;;;;4.33;2.90;;;19.90;96.90;;;;;;4977164;28;20518;-66
2023/06/28 00:18:30;;;;;;;5.10;3.07;;;19.90;97.10;;;;;;4994370;28;20539;-66
2023/06/28 00:20:57;;;;;;;4.47;2.60;;;20.00;97.10;;;;;;4993676;28;20480;-66
2023/06/28 00:23:24;;;;;;;3.70;2.70;;;19.90;97.40;;;;;;4994112;28;20460;-66
2023/06/28 00:25:52;;;;;;;4.77;2.97;;;19.90;97.10;;;;;;4994240;28;20452;-66
2023/06/28 00:28:19;;;;;;;3.80;2.83;;;19.80;97.80;;;;;;4994327;28;20463;-66
2023/06/28 00:30:46;;;;;;;3.87;2.70;;;19.70;97.80;;;;;;4994442;28;20456;-66
2023/06/28 00:33:19;;;;;;;6.37;3.23;;;19.70;97.90;;;;;;4994135;28;20484;-66
2023/06/28 00:35:46;;;;;;;4.20;2.60;;;19.60;97.70;;;;;;4994233;28;20460;-66
2023/06/28 00:38:14;;;;;;;4.60;2.83;;;19.70;97.90;;;;;;4994177;28;20456;-66
2023/06/28 00:40:41;;;;;;;3.90;2.90;;;19.60;98.00;;;;;;4992760;28;20463;-66
2023/06/28 00:43:09;;;;;;;5.00;2.87;;;19.60;98.00;;;;;;4993865;28;20456;-66
2023/06/28 00:45:39;;;;;;;5.93;3.00;;;19.70;98.00;;;;;;4993910;28;20843;-66
2023/06/28 00:48:07;;;;;;;4.43;3.10;;;19.50;98.00;;;;;;4993750;28;20526;-66
2023/06/28 00:50:35;;;;;;;4.73;3.17;;;19.50;98.00;;;;;;4993876;28;20468;-66
2023/06/28 00:53:02;;;;;;;6.37;3.07;;;19.40;98.00;;;;;;4993318;28;20484;-66
2023/06/28 00:55:29;;;;;;;4.43;2.80;;;19.60;98.00;;;;;;4993663;28;20460;-66
2023/06/28 00:57:56;;;;;;;5.03;2.97;;;19.70;98.00;;;;;;4993592;28;20820;-66
2023/06/28 01:00:26;;;;;;;4.10;2.90;;;19.70;98.00;;;;;;4993598;28;20518;-66
2023/06/28 01:02:53;;;;;;;4.70;2.87;;;19.60;98.00;;;;;;4993366;28;20452;-66
2023/06/28 01:05:22;;;;;;;4.37;2.70;;;19.50;98.00;;;;;;4993441;28;20994;-66
2023/06/28 01:07:50;;;;;;;8.00;3.20;;;19.60;98.00;;;;;;4993429;28;20832;-66
2023/06/28 01:10:18;;;;;;;4.73;2.70;;;19.50;98.00;;;;;;4993361;28;20464;-66
2023/06/28 01:12:47;;;;;;;4.80;2.97;;;19.30;98.00;;;;;;4993077;28;20488;-66
2023/06/28 01:15:14;;;;;;;6.60;3.37;;;19.30;98.00;;;;;;4993267;28;20457;-66
2023/06/28 01:17:43;;;;;;;4.60;2.80;;;19.30;98.00;;;;;;4993021;28;20459;-66
2023/06/28 01:20:10;;;;;;;3.20;2.37;;;19.30;98.00;;;;;;4993262;28;20457;-66
2023/06/28 01:22:40;;;;;;;3.67;2.97;;;19.20;98.00;;;;;;4993009;28;20982;-66
2023/06/28 01:25:10;;;;;;;5.03;2.80;;;19.10;98.00;;;;;;4993324;28;20503;-66
2023/06/28 01:27:44;;;;;;;5.27;2.87;;;19.10;98.00;;;;;;4993210;28;20970;-66
2023/06/28 01:30:14;;;;;;;5.37;2.70;;;19.00;98.00;;;;;;4993137;28;20484;-66
2023/06/28 01:32:43;;;;;;;4.67;3.20;;;19.00;98.00;;;;;;4992103;28;20830;-66
2023/06/28 01:35:10;;;;;;;6.03;2.87;;;19.00;98.00;;;;;;4992937;28;20495;-66
2023/06/28 01:37:39;;;;;;;3.43;2.47;;;18.90;98.00;;;;;;4992841;28;20882;-66
2023/06/28 01:40:10;;;;;;;4.83;2.90;;;18.90;98.00;;;;;;4992916;28;20519;-66
2023/06/28 01:42:38;;;;;;;4.47;2.90;;;18.90;98.00;;;;;;4992737;28;20460;-66
2023/06/28 01:45:06;;;;;;;4.27;2.80;;;18.80;98.00;;;;;;4992769;28;20526;-66
2023/06/28 01:47:34;;;;;;;4.27;2.73;;;18.90;98.00;;;;;;4992565;28;20461;-66
2023/06/28 01:50:01;;;;;;;3.80;2.77;;;19.00;98.00;;;;;;4992508;28;20456;-66
2023/06/28 01:52:29;;;;;;;3.40;2.47;;;19.00;98.00;;;;;;4992497;28;20464;-66
2023/06/28 01:54:56;;;;;;;4.17;3.00;;;19.00;98.00;;;;;;4992322;28;20448;-66
2023/06/28 01:57:25;;;;;;;3.17;2.60;;;18.80;98.00;;;;;;4992621;28;20452;-66
2023/06/28 01:59:52;;;;;;;4.00;2.80;;;18.80;98.00;;;;;;4992396;28;20456;-66
2023/06/28 02:02:19;;;;;;;4.50;2.97;;;18.80;98.00;;;;;;4992381;28;20464;-66
2023/06/28 02:04:47;;;;;;;6.37;2.97;;;18.80;98.00;;;;;;4992466;28;20776;-65
2023/06/28 02:07:15;;;;;;;3.83;2.90;;;18.70;98.00;;;;;;4992240;28;20455;-66
2023/06/28 02:09:42;;;;;;;4.87;3.10;;;18.50;98.00;;;;;;4992166;28;20459;-66
2023/06/28 02:12:09;;;;;;;6.80;3.07;;;18.30;98.00;;;;;;4992139;28;20472;-66
2023/06/28 02:14:39;;;;;;;3.83;2.87;;;18.30;98.00;;;;;;4992140;28;20487;-66
2023/06/28 02:17:13;;;;;;;4.83;2.90;;;18.20;98.00;;;;;;4992299;28;20456;-66
2023/06/28 02:19:41;;;;;;;5.03;2.90;;;18.10;98.00;;;;;;4992470;28;20452;-66
2023/06/28 02:22:09;;;;;;;6.90;3.43;;;18.10;98.00;;;;;;4992453;28;20468;-66
2023/06/28 02:24:36;;;;;;;3.20;2.60;;;17.90;98.00;;;;;;4992090;28;20998;-66
2023/06/28 02:27:03;;;;;;;4.63;3.00;;;17.90;98.00;;;;;;4990888;28;20456;-66
2023/06/28 02:29:30;;;;;;;5.37;3.33;;;17.80;98.00;;;;;;4992007;28;20523;-66
2023/06/28 02:31:59;;;;;;;4.57;2.83;;;17.70;98.00;;;;;;4990861;28;20453;-66
2023/06/28 02:34:26;;;;;;;4.60;3.03;;;17.70;98.00;;;;;;4991698;28;20847;-66
2023/06/28 02:36:54;;;;;;;5.00;3.30;;;17.60;98.00;;;;;;4991903;28;20459;-66
2023/06/28 02:39:21;;;;;;;5.00;2.80;;;17.60;98.00;;;;;;4991794;28;20985;-66
2023/06/28 02:41:48;;;;;;;4.97;2.80;;;17.60;98.00;;;;;;4991770;28;20460;-66
2023/06/28 02:44:15;;;;;;;6.37;3.20;;;17.60;98.00;;;;;;4991298;28;20460;-66
2023/06/28 02:46:43;;;;;;;5.70;2.80;;;17.60;98.00;;;;;;4991757;28;20453;-66
2023/06/28 02:49:11;;;;;;;5.17;3.20;;;17.70;98.00;;;;;;4991662;28;20883;-66
2023/06/28 02:51:38;;;;;;;5.60;3.00;;;17.80;98.00;;;;;;4991637;28;20596;-66
2023/06/28 02:54:06;;;;;;;6.30;3.20;;;17.70;98.00;;;;;;4991640;28;20484;-66
2023/06/28 02:56:34;;;;;;;5.73;3.47;;;17.80;98.00;;;;;;4991675;28;20460;-66
2023/06/28 02:59:01;;;;;;;4.23;2.83;;;17.80;98.00;;;;;;4990562;28;20459;-66
2023/06/28 03:01:29;;;;;;;4.87;2.67;;;17.80;98.00;;;;;;4991972;28;20457;-66
2023/06/28 03:03:56;;;;;;;3.90;2.53;;;17.90;98.00;;;;;;4990481;28;20510;-66
2023/06/28 03:06:24;;;;;;;4.70;2.70;;;18.00;98.00;;;;;;4991667;28;20448;-66
2023/06/28 03:08:51;;;;;;;5.63;2.40;;;18.10;98.00;;;;;;4991573;28;20514;-66
2023/06/28 03:11:18;;;;;;;5.77;3.10;;;18.20;98.00;;;;;;4991738;28;20469;-66
2023/06/28 03:13:45;;;;;;;4.63;2.67;;;18.20;98.00;;;;;;4991723;28;20484;-66
2023/06/28 03:16:12;;;;;;;2.90;2.43;;;18.20;98.00;;;;;;4991585;28;20456;-66
2023/06/28 03:18:39;;;;;;;7.20;3.50;;;18.20;98.00;;;;;;4991717;28;20824;-65
2023/06/28 03:21:06;;;;;;;5.60;3.40;;;18.30;98.00;;;;;;4991502;28;20539;-66
2023/06/28 03:23:35;;;;;;;5.57;2.83;;;18.30;98.00;;;;;;4991457;28;20519;-66
2023/06/28 03:26:02;;;;;;;6.60;2.70;;;18.30;98.00;;;;;;4991366;28;20452;-66
2023/06/28 03:28:30;;;;;;;4.00;2.50;;;18.30;98.00;;;;;;4991419;28;21068;-65
2023/06/28 03:30:57;;;;;;;6.33;3.20;;;18.30;98.00;;;;;;4991623;28;20470;-66
2023/06/28 03:33:27;;;;;;;4.13;2.67;;;18.40;98.00;;;;;;4991477;28;20480;-66
2023/06/28 03:35:55;;;;;;;4.17;2.87;;;18.40;98.00;;;;;;4991414;28;20465;-66
2023/06/28 03:38:21;;;;;;;4.10;2.80;;;18.40;98.00;;;;;;4991848;28;20460;-66
2023/06/28 03:40:50;;;;;;;5.27;3.13;;;18.30;98.00;;;;;;4991322;28;20460;-66
2023/06/28 03:43:17;;;;;;;4.40;2.87;;;18.40;98.00;;;;;;4991173;28;20464;-66
2023/06/28 03:45:44;;;;;;;4.03;3.03;;;18.40;98.00;;;;;;4991269;28;20460;-66
2023/06/28 03:48:11;;;;;;;3.90;2.67;;;18.50;98.00;;;;;;4991188;28;20969;-66
2023/06/28 03:50:39;;;;;;;3.00;2.57;;;18.60;98.00;;;;;;4991424;28;20463;-66
2023/06/28 03:53:06;;;;;;;5.60;2.90;;;18.50;98.00;;;;;;4991089;28;20955;-66
2023/06/28 03:55:33;;;;;;;4.20;2.83;;;18.60;98.00;;;;;;4991903;28;20452;-66
2023/06/28 03:58:02;;;;;;;5.00;2.87;;;18.70;98.00;;;;;;4994649;28;21017;-66
2023/06/28 04:00:29;;;;;;;4.37;3.00;;;18.70;98.00;;;;;;4994735;28;20515;-66
2023/06/28 04:02:56;;;;;;;5.80;3.23;;;18.80;98.00;;;;;;4998691;28;20460;-66
2023/06/28 04:05:23;;;;;;;3.53;2.97;;;18.70;98.00;;;;;;5014407;28;20455;-66
2023/06/28 04:07:57;;;;;;;8.40;3.03;;;18.50;98.00;;;;;;5014216;28;20459;-66
2023/06/28 04:10:25;;;;;;;3.00;2.50;;;18.40;98.00;;;;;;5014386;28;21109;-66
2023/06/28 04:12:53;;;;;;;4.23;2.90;;;18.40;98.00;;;;;;5013854;28;20459;-66
2023/06/28 04:15:22;;;;;;;4.00;2.77;;;18.50;98.00;;;;;;5013889;28;20561;-66
2023/06/28 04:17:49;;;;;;;6.00;2.87;;;18.50;98.00;;;;;;5013887;28;20854;-66
2023/06/28 04:20:16;;;;;;;4.10;2.77;;;18.60;98.00;;;;;;5013782;28;20471;-66
2023/06/28 04:22:45;;;;;;;8.70;2.80;;;18.60;98.00;;;;;;5013941;28;20482;-66
2023/06/28 04:25:12;;;;;;;3.37;2.60;;;18.60;98.00;;;;;;5013819;28;20948;-66
2023/06/28 04:27:39;;;;;;;5.67;3.00;;;18.60;98.00;;;;;;5013746;28;20448;-66
2023/06/28 04:30:08;;;;;;;4.00;2.70;;;18.60;98.00;;;;;;5013651;28;20892;-66
2023/06/28 04:32:36;;;;;;;4.50;2.97;;;18.60;98.00;;;;;;5013221;28;20534;-66
2023/06/28 04:35:04;;;;;;;4.10;2.90;;;18.70;98.00;;;;;;5013678;28;20487;-66
2023/06/28 04:37:31;;;;;;;4.30;3.07;;;18.70;98.00;;;;;;5013614;28;20513;-66
2023/06/28 04:39:59;;;;;;;5.00;2.90;;;18.70;98.00;;;;;;5013426;28;20456;-66
2023/06/28 04:42:26;;;;;;;5.43;3.10;;;18.70;98.00;;;;;;5013618;28;20456;-66
2023/06/28 04:44:59;;;;;;;4.40;3.00;;;18.70;98.00;;;;;;5013589;28;20463;-66
2023/06/28 04:47:27;;;;;;;3.33;2.70;;;18.90;98.00;;;;;;5014407;28;20547;-66
2023/06/28 04:49:56;;;;;;;4.30;3.03;;;18.90;98.00;;;;;;5014109;28;20961;-66
2023/06/28 04:52:25;;;;;;;4.10;3.20;;;18.80;98.00;;;;;;5014407;28;20456;-66
2023/06/28 04:54:52;;;;;;;4.93;2.80;;;18.80;98.00;;;;;;5013959;28;20985;-66
2023/06/28 04:57:20;;;;;;;4.87;3.30;;;18.80;98.00;;;;;;5014235;28;20459;-64
2023/06/28 04:59:47;;;;;;;4.97;3.30;;;18.80;98.00;;;;;;5014224;28;20487;-64
2023/06/28 05:02:14;;;;;;;5.70;3.33;;;18.80;98.00;;;;;;5014213;28;20459;-64
2023/06/28 05:04:42;;;;;;;8.73;3.70;;;18.70;98.00;;;;;;5014219;28;20459;-65
2023/06/28 05:07:10;;;;;;;4.87;3.57;;;18.60;98.00;;;;;;5013605;28;20459;-65
2023/06/28 05:09:39;;;;;;;6.67;3.63;;;18.80;98.00;;;;;;5013707;28;20452;-64
2023/06/28 05:12:07;;;;;;;6.90;3.60;;;18.90;98.00;;;;;;5013411;28;20545;-64
2023/06/28 05:14:34;;;;;;;5.37;3.27;;;19.00;98.00;;;;;;5013350;28;21008;-64
2023/06/28 05:17:01;;;;;;;10.17;3.10;;;19.00;98.00;;;;;;5013559;28;20460;-64
2023/06/28 05:19:28;;;;;;;4.50;3.20;;;19.00;98.00;;;;;;5013562;28;20456;-63
2023/06/28 05:21:56;;;;;;;5.20;3.50;;;19.10;98.00;;;;;;5013612;28;20474;-65
2023/06/28 05:24:24;;;;;;;5.10;3.33;;;18.90;98.00;;;;;;5013384;28;20456;-64
2023/06/28 05:26:51;;;;;;;4.00;3.00;;;18.80;98.00;;;;;;5013475;28;20464;-64
2023/06/28 05:29:19;;;;;;;4.70;3.53;;;18.90;98.00;;;;;;5013138;28;20462;-64
2023/06/28 05:31:46;;;;;;;4.80;3.40;;;19.00;98.00;;;;;;5013361;28;20463;-64
2023/06/28 05:34:13;;;;;;;5.80;3.60;;;18.90;98.00;;;;;;5013055;28;20507;-64
2023/06/28 05:36:41;;;;;;;8.33;3.70;;;18.90;98.00;;;;;;5013336;28;20467;-64
2023/06/28 05:39:08;;;;;;;8.07;3.47;;;18.90;98.00;;;;;;5013237;28;20562;-64
2023/06/28 05:41:36;;;;;;;5.67;3.20;;;18.90;98.00;;;;;;5013202;28;20456;-64
2023/06/28 05:44:04;;;;;;;4.90;3.30;;;19.00;98.00;;;;;;5013027;28;20462;-64
2023/06/28 05:46:31;;;;;;;6.37;3.20;;;19.00;98.00;;;;;;5011876;28;20471;-65
2023/06/28 05:49:00;;;;;;;5.40;3.23;;;19.10;98.00;;;;;;5013140;28;20471;-64
2023/06/28 05:51:27;;;;;;;10.43;3.10;;;19.40;98.00;;;;;;5013112;28;20949;-64
2023/06/28 05:53:54;;;;;;;7.40;3.40;;;19.40;98.00;;;;;;5013053;28;20455;-64
2023/06/28 05:56:22;;;;;;;4.53;3.47;;;19.40;98.00;;;;;;5013384;28;20463;-64
2023/06/28 05:58:50;;;;;;;5.27;3.40;;;19.20;98.00;;;;;;5013096;28;20579;-64
2023/06/28 06:01:18;;;;;;;4.00;3.17;;;19.10;98.00;;;;;;5012733;28;20463;-64
2023/06/28 06:03:45;;;;;;;5.40;3.33;;;19.10;98.00;;;;;;5012835;28;20466;-64
2023/06/28 06:06:13;;;;;;;6.43;3.50;;;19.20;98.00;;;;;;5012689;28;21016;-64
2023/06/28 06:08:40;;;;;;;5.93;3.53;;;19.40;98.00;;;;;;5003363;28;20472;-63
2023/06/28 06:11:09;;;;;;;5.40;3.30;;;19.40;98.00;;;;;;4992563;28;20461;-64
2023/06/28 06:13:36;;;;;;;4.43;3.13;;;19.40;98.00;;;;;;4992730;28;20627;-64
2023/06/28 06:16:05;;;;;;;6.00;3.20;;;19.50;98.00;;;;;;4992773;28;21100;-64
2023/06/28 06:18:34;;;;;;;6.33;3.73;;;19.30;98.00;;;;;;4992526;28;20483;-64
2023/06/28 06:21:01;;;;;;;7.20;3.77;;;19.40;98.00;;;;;;4992379;28;20939;-64
2023/06/28 06:23:28;;;;;;;3.93;2.40;;;19.30;98.00;;;;;;5009008;28;20466;-64
2023/06/28 06:25:55;;;;;;;6.07;3.63;;;19.60;98.00;;;;;;5012177;28;20933;-63
2023/06/28 06:28:23;;;;;;;6.90;3.50;;;19.60;98.00;;;;;;5012363;28;20811;-64
2023/06/28 06:30:50;;;;;;;6.93;3.57;;;19.70;98.00;;;;;;5012235;28;20466;-62
2023/06/28 06:33:19;;;;;;;4.93;3.40;;;19.90;98.00;;;;;;5012410;28;20462;-63
2023/06/28 06:35:46;;;;;;;6.07;4.00;;;19.80;98.00;;;;;;5010714;28;20487;-63
2023/06/28 06:38:13;;;;;;;9.87;3.90;;;19.70;98.00;;;;;;5011597;28;21037;-63
2023/06/28 06:40:44;;;;;;;6.90;3.13;;;19.50;98.00;;;;;;5011889;28;20824;-64
2023/06/28 06:43:11;;;;;;;4.67;3.33;;;19.40;98.00;;;;;;5011822;28;20452;-63
2023/06/28 06:45:39;;;;;;;7.20;4.03;;;19.30;98.00;;;;;;5011572;28;20451;-63
2023/06/28 06:48:06;;;;;;;4.60;3.00;;;19.30;98.00;;;;;;5011501;28;20452;-64
2023/06/28 06:50:35;;;;;;;5.13;3.30;;;19.40;98.00;;;;;;5012222;28;20448;-63
2023/06/28 06:53:02;;;;;;;4.80;2.97;;;19.40;98.00;;;;;;5011395;28;20463;-64
2023/06/28 06:55:31;;;;;;;8.90;3.80;;;19.40;98.00;;;;;;5011680;28;20487;-64
2023/06/28 06:57:58;;;;;;;5.40;3.77;;;19.70;98.00;;;;;;5008423;28;20479;-64
2023/06/28 07:00:25;;;;;;;5.33;3.23;;;19.70;98.00;;;;;;5010098;28;21124;-64
2023/06/28 07:02:52;;;;;;;5.20;3.40;;;19.70;98.00;;;;;;5010014;28;20452;-63
2023/06/28 07:05:19;;;;;;;5.20;3.47;;;19.80;98.00;;;;;;5009804;28;20459;-64
2023/06/28 07:07:48;;;;;;;5.83;3.83;;;19.80;98.00;;;;;;5010031;28;20451;-64
2023/06/28 07:10:15;;;;;;;8.67;3.73;;;19.70;98.00;;;;;;5008458;28;20939;-63
2023/06/28 07:12:42;;;;;;;6.83;3.67;;;19.70;98.00;;;;;;5011366;28;20471;-63
2023/06/28 07:15:10;;;;;;;4.07;3.10;;;19.80;98.00;;;;;;5011545;28;20590;-63
2023/06/28 07:17:37;;;;;;;5.00;3.50;;;19.80;98.00;;;;;;5011361;28;20550;-63
2023/06/28 07:20:07;;;;;;;7.33;3.83;;;19.90;98.00;;;;;;5009670;28;21004;-64
2023/06/28 07:22:34;;;;;;;8.50;3.70;;;20.10;98.00;;;;;;5010058;28;20455;-63
2023/06/28 07:25:04;;;;;;;5.63;3.43;;;20.10;98.00;;;;;;5009899;28;20464;-63
2023/06/28 07:27:34;;;;;;;8.60;3.60;;;20.00;98.00;;;;;;4994643;28;20463;-67
2023/06/28 07:30:01;;;;;;;6.10;3.70;;;20.00;98.00;;;;;;5010935;28;20483;-66
2023/06/28 07:32:28;;;;;;;4.87;3.23;;;20.10;98.00;;;;;;5015299;28;20514;-65
2023/06/28 07:34:55;;;;;;;13.70;3.70;;;20.20;98.00;;;;;;5000476;28;20488;-63
2023/06/28 07:37:23;;;;;;;7.37;3.70;;;20.20;98.00;;;;;;4995901;28;20468;-65
2023/06/28 07:39:51;;;;;;;6.63;3.70;;;20.20;98.00;;;;;;4994211;28;20463;-64
2023/06/28 07:42:20;;;;;;;6.53;3.90;;;20.30;98.00;;;;;;4994425;28;20459;-64
2023/06/28 07:44:47;;;;;;;4.17;2.70;;;20.50;98.00;;;;;;4995542;28;20535;-61
2023/06/28 07:47:17;;;;;;;6.20;2.80;;;20.70;98.00;;;;;;4995877;28;20471;-61
2023/06/28 07:49:45;;;;;;;7.30;2.83;;;21.10;98.00;;;;;;4994477;28;20465;-61
2023/06/28 07:52:12;;;;;;;4.00;3.23;;;21.60;98.00;;;;;;4993818;28;20448;-61
2023/06/28 07:54:39;;;;;;;7.10;3.17;;;22.00;98.00;;;;;;4995221;28;20476;-59
2023/06/28 07:57:09;;;;;;;4.40;2.93;;;22.10;98.00;;;;;;4995030;28;20464;-65
2023/06/28 07:59:37;;;;;;;4.33;2.93;;;22.40;97.90;;;;;;4995241;28;20530;-64
2023/06/28 08:02:05;;;;;;;5.23;3.50;;;22.40;97.20;;;;;;4994089;28;20479;-64
2023/06/28 08:04:32;;;;;;;5.53;3.47;;;22.30;97.20;;;;;;4994875;28;20460;-64
2023/06/28 08:06:59;;;;;;;5.53;3.67;;;22.20;98.00;;;;;;4995033;28;20950;-64
2023/06/28 08:09:27;;;;;;;4.37;3.07;;;22.10;97.80;;;;;;4995111;28;20931;-64
2023/06/28 08:11:54;;;;;;;5.70;3.90;;;22.10;98.00;;;;;;4994966;28;20472;-64
2023/06/28 08:14:21;;;;;;;5.83;2.93;;;21.90;98.00;;;;;;4995117;28;20467;-64
2023/06/28 08:16:49;;;;;;;6.40;3.50;;;21.90;98.00;;;;;;4994864;28;20839;-64
2023/06/28 08:19:16;;;;;;;4.97;3.00;;;22.00;98.00;;;;;;4993328;28;20955;-64
2023/06/28 08:21:44;;;;;;;5.23;3.20;;;22.10;95.90;;;;;;4995125;28;20464;-64
2023/06/28 08:24:11;;;;;;;4.50;3.20;;;22.10;93.80;;;;;;4993628;28;20460;-64
2023/06/28 08:26:38;;;;;;;4.43;3.03;;;22.10;94.50;;;;;;4994917;28;20469;-64
2023/06/28 08:29:05;;;;;;;8.97;3.00;;;22.00;93.10;;;;;;4994904;28;20467;-64
2023/06/28 08:31:35;;;;;;;6.13;3.30;;;21.90;93.90;;;;;;4994802;28;20459;-65
2023/06/28 08:34:03;;;;;;;5.03;2.80;;;21.90;92.40;;;;;;4993729;28;20998;-64
2023/06/28 08:36:30;;;;;;;5.00;2.90;;;22.00;91.10;;;;;;4994755;28;20580;-64
2023/06/28 08:38:57;;;;;;;4.80;3.00;;;22.00;92.00;;;;;;4994964;28;20946;-64
2023/06/28 08:41:27;;;;;;;5.43;3.27;;;22.10;91.90;;;;;;4994301;28;20464;-63
2023/06/28 08:43:55;;;;;;;4.37;3.00;;;22.30;92.60;;;;;;4994855;28;20464;-63
2023/06/28 08:46:23;;;;;;;4.27;2.83;;;22.60;92.70;;;;;;4994482;28;20468;-62
2023/06/28 08:48:51;;;;;;;6.23;3.00;;;22.80;92.80;;;;;;4994589;28;20457;-64
2023/06/28 08:51:20;;;;;;;3.70;2.90;;;23.30;91.80;;;;;;4994123;28;20469;-62
2023/06/28 08:53:49;;;;;;;5.30;3.43;;;;;;;;;;4993564;28;20464;-63
2023/06/28 08:56:16;;;;;;;4.10;2.63;;;24.00;87.80;;;;;;4992600;28;20503;-62
2023/06/28 08:58:44;;;;;;;5.00;3.10;;;24.10;86.00;;;;;;4992632;28;20484;-63
2023/06/28 09:01:13;;;;;;;3.90;3.10;;;24.20;86.00;;;;;;4993899;28;20468;-62
2023/06/28 09:03:42;;;;;;;4.37;2.70;;;24.30;86.00;;;;;;4993602;28;20448;-63
2023/06/28 09:06:09;;;;;;;5.13;3.60;;;24.40;85.70;;;;;;4993527;28;20460;-63
2023/06/28 09:08:38;;;;;;;3.93;2.90;;;24.20;83.90;;;;;;4993456;28;20460;-62
2023/06/28 09:11:06;;;;;;;5.60;3.27;;;24.20;85.00;;;;;;4993469;28;20452;-63
2023/06/28 09:13:33;;;;;;;3.87;2.80;;;24.40;85.70;;;;;;4992110;28;20512;-63
2023/06/28 09:16:01;;;;;;;6.30;3.37;;;24.50;83.80;;;;;;4993308;28;20492;-63
2023/06/28 09:18:28;;;;;;;7.73;3.43;;;24.80;82.90;;;;;;4993454;28;20465;-62
2023/06/28 09:20:55;;;;;;;5.80;3.10;;;25.00;83.20;;;;;;4993271;28;20460;-63
2023/06/28 09:23:27;;;;;;;5.13;2.80;;;25.10;83.10;;;;;;4991958;28;20457;-62
2023/06/28 09:25:56;;;;;;;3.17;2.60;;;25.30;82.50;;;;;;4993235;28;20460;-64
2023/06/28 09:28:24;;;;;;;4.80;3.57;;;25.40;81.30;;;;;;4993262;28;20456;-62
2023/06/28 09:30:54;;;;;;;3.60;2.97;;;25.00;80.90;;;;;;4993078;28;20467;-63
2023/06/28 09:33:24;;;;;;;4.50;3.07;;;24.70;82.30;;;;;;4991839;28;20523;-65
2023/06/28 09:35:54;;;;;;;5.33;2.83;;;24.70;82.40;;;;;;4992960;28;20488;-62
2023/06/28 09:38:22;;;;;;;4.80;3.03;;;24.90;82.50;;;;;;4993202;28;20499;-63
2023/06/28 09:40:56;;;;;;;5.50;3.13;;;25.00;82.30;;;;;;4993043;28;20515;-64
2023/06/28 09:43:23;;;;;;;3.57;2.90;;;25.10;82.20;;;;;;4993096;28;20555;-64
2023/06/28 09:45:53;;;;;;;4.27;2.97;;;25.00;81.40;;;;;;4993061;28;20492;-64
2023/06/28 09:48:24;;;;;;;4.27;2.60;;;25.10;81.80;;;;;;4992707;28;20468;-64
2023/06/28 09:50:51;;;;;;;6.00;3.33;;;25.20;81.50;;;;;;4991481;28;20943;-64
2023/06/28 09:53:21;;;;;;;3.23;2.70;;;25.20;81.50;;;;;;4990723;28;20460;-64
2023/06/28 09:55:50;;;;;;;5.40;3.47;;;25.30;81.10;;;;;;4992892;28;21079;-64
2023/06/28 09:58:20;;;;;;;4.23;3.00;;;25.30;81.60;;;;;;4992992;28;20694;-64
2023/06/28 10:00:48;;;;;;;4.67;3.30;;;25.50;81.50;;;;;;4993176;28;20552;-64
2023/06/28 10:03:17;;;;;;;5.47;3.00;;;25.60;80.90;;;;;;4993036;28;20515;-64
2023/06/28 10:05:46;;;;;;;4.60;3.10;;;25.70;81.10;;;;;;4992949;28;20995;-64
2023/06/28 10:08:15;;;;;;;4.50;3.00;;;25.80;80.60;;;;;;4992986;28;20472;-64
2023/06/28 10:10:43;;;;;;;5.53;3.20;;;26.10;79.90;;;;;;4992958;28;20874;-64
2023/06/28 10:13:13;;;;;;;3.77;3.10;;;26.30;78.90;;;;;;4992767;28;20950;-64
2023/06/28 10:15:47;;;;;;;5.33;3.00;;;26.30;79.30;;;;;;4992967;28;20484;-65
2023/06/28 10:18:15;;;;;;;5.77;2.83;;;26.30;79.90;;;;;;5006527;28;20877;-64
2023/06/28 10:20:42;;;;;;;5.07;3.30;;;26.40;78.80;;;;;;5012528;28;20478;-64
2023/06/28 10:23:12;;;;;;;5.17;3.03;;;26.20;79.10;;;;;;5012012;28;20448;-64
2023/06/28 10:25:41;;;;;;;3.90;3.13;;;26.20;78.70;;;;;;5012533;28;20490;-64
2023/06/28 10:28:09;;;;;;;5.23;3.10;;;26.40;78.80;;;;;;5012386;28;20539;-64
2023/06/28 10:30:36;;;;;;;4.80;3.30;;;26.60;77.90;;;;;;5012477;28;20455;-64
2023/06/28 10:33:06;;;;;;;4.43;2.97;;;26.70;77.70;;;;;;5012507;28;20962;-63
2023/06/28 10:35:34;;;;;;;4.47;2.73;;;26.70;76.40;;;;;;5012496;28;20515;-64
2023/06/28 10:38:01;;;;;;;7.60;3.00;;;26.80;76.80;;;;;;5012299;28;20463;-64
2023/06/28 10:40:29;;;;;;;6.10;3.00;;;26.90;75.70;;;;;;5012223;28;20873;-63
2023/06/28 10:42:56;;;;;;;5.43;2.83;;;27.00;76.00;;;;;;5012276;28;20451;-64
2023/06/28 10:45:34;;;;;;;3.70;2.97;;;27.10;76.10;;;;;;5012177;28;20443;-64
2023/06/28 10:48:01;;;;;;;4.07;2.90;;;27.30;75.80;;;;;;5012083;28;20968;-64
2023/06/28 10:50:39;;;;;;;3.80;2.87;;;27.50;74.50;;;;;;5011999;28;20461;-64
2023/06/28 10:53:06;;;;;;;3.40;2.70;;;27.60;74.30;;;;;;5011912;28;20455;-64
2023/06/28 10:55:36;;;;;;;4.73;2.90;;;27.60;75.20;;;;;;5011764;28;20458;-64
2023/06/28 10:58:07;;;;;;;4.27;3.17;;;27.70;75.10;;;;;;5012042;28;20554;-64
2023/06/28 11:00:49;;;;;;;5.23;2.97;;;27.90;74.00;;;;;;5012035;28;20544;-64
2023/06/28 11:03:19;;;;;;;5.60;2.90;;;27.60;74.30;;;;;;5010994;28;20490;-64
2023/06/28 11:05:55;;;;;;;4.40;2.90;;;27.10;74.20;;;;;;5014704;28;20466;-64
2023/06/28 11:08:36;;;;;;;6.60;2.90;;;27.00;74.90;;;;;;5016144;28;20455;-64
2023/06/28 11:11:03;;;;;;;3.60;2.70;;;27.50;75.40;;;;;;5015701;28;20866;-63
2023/06/28 11:13:44;;;;;;;3.40;2.80;;;27.70;72.80;;;;;;5015870;28;20546;-64
2023/06/28 11:16:18;;;;;;;5.13;3.30;;;27.90;73.20;;;;;;5015893;28;20490;-65
2023/06/28 11:18:46;;;;;;;4.20;3.00;;;28.10;73.00;;;;;;5016079;28;20924;-62
2023/06/28 11:21:19;;;;;;;4.40;3.00;;;28.20;72.60;;;;;;5014664;28;20490;-67
2023/06/28 11:23:47;;;;;;;5.40;2.97;;;27.90;73.00;;;;;;5015851;28;20467;-67
2023/06/28 11:26:17;;;;;;;4.33;3.00;;;27.70;73.20;;;;;;5016061;28;20926;-67
2023/06/28 11:28:51;;;;;;;4.90;3.10;;;27.50;74.00;;;;;;5015864;28;20545;-67
2023/06/28 11:31:21;;;;;;;4.07;2.80;;;27.60;74.60;;;;;;5016132;28;20454;-67
2023/06/28 11:33:50;;;;;;;4.77;2.90;;;27.40;74.60;;;;;;5015768;28;20478;-67
2023/06/28 11:36:19;;;;;;;3.40;2.93;;;27.50;74.30;;;;;;5015561;28;20511;-68
2023/06/28 11:38:47;;;;;;;3.83;2.80;;;27.70;74.90;;;;;;5015462;28;20484;-67
2023/06/28 11:41:17;;;;;;;5.50;3.03;;;27.80;73.50;;;;;;5015575;28;20875;-68
2023/06/28 11:43:46;;;;;;;3.77;2.83;;;27.70;74.00;;;;;;5015104;28;20463;-67
2023/06/28 11:46:18;;;;;;;4.70;3.40;;;27.50;75.00;;;;;;5015287;28;20455;-67
2023/06/28 11:48:46;;;;;;;5.10;3.50;;;27.20;73.70;;;;;;5015273;28;20463;-65
2023/06/28 11:51:14;;;;;;;3.87;3.23;;;26.90;74.40;;;;;;5015131;28;20887;-68
2023/06/28 11:53:43;;;;;;;8.33;3.20;;;27.40;75.00;;;;;;5015269;28;20546;-68
2023/06/28 11:56:10;;;;;;;5.87;3.43;;;28.00;74.20;;;;;;5014843;28;20491;-67
2023/06/28 11:58:37;;;;;;;4.10;3.07;;;28.60;73.10;;;;;;5015212;28;20465;-69
2023/06/28 12:01:06;;;;;;;4.07;3.13;;;29.00;72.20;;;;;;5015119;28;20871;-66
2023/06/28 12:03:34;;;;;;;5.53;3.50;;;28.80;72.60;;;;;;5015060;28;20509;-68
2023/06/28 12:06:02;;;;;;;4.77;3.30;;;28.10;73.10;;;;;;5014963;28;20467;-65
2023/06/28 12:08:34;;;;;;;7.10;3.43;;;28.20;73.00;;;;;;5015000;28;20459;-66
2023/06/28 12:11:08;;;;;;;4.73;3.23;;;28.50;73.40;;;;;;5014909;28;20505;-65
2023/06/28 12:13:35;;;;;;;5.73;3.03;;;29.00;71.90;;;;;;5014696;28;20517;-67
2023/06/28 12:16:12;;;;;;;4.80;3.70;;;29.40;71.20;;;;;;5014221;28;20928;-64
2023/06/28 12:18:59;;;;;;;5.23;3.07;;;29.80;69.50;;;;;;5014628;28;20463;-65
2023/06/28 12:21:27;;;;;;;4.03;3.20;;;30.20;68.90;;;;;;5014680;28;20466;-66
2023/06/28 12:23:54;;;;;;;7.60;3.50;;;30.10;69.10;;;;;;5014623;28;20455;-65
2023/06/28 12:26:24;;;;;;;4.77;3.20;;;29.60;69.40;;;;;;5014697;28;20479;-66
2023/06/28 12:28:51;;;;;;;5.00;3.23;;;29.00;70.20;;;;;;5014741;28;20554;-65
2023/06/28 12:31:19;;;;;;;4.63;3.13;;;28.40;72.20;;;;;;5014671;28;20495;-66
2023/06/28 12:33:53;;;;;;;4.20;3.30;;;28.60;71.90;;;;;;5014504;28;20521;-65
2023/06/28 12:36:24;;;;;;;7.80;3.20;;;28.60;70.80;;;;;;5014294;28;20573;-66
2023/06/28 12:38:51;;;;;;;4.00;2.73;;;28.00;72.00;;;;;;5014265;28;20459;-65
2023/06/28 12:41:19;;;;;;;4.20;3.03;;;28.10;72.80;;;;;;5014224;28;20962;-65
2023/06/28 12:43:58;;;;;;;7.00;3.00;;;27.90;72.70;;;;;;5014351;28;20463;-65
2023/06/28 12:46:26;;;;;;;3.70;2.97;;;28.10;72.90;;;;;;5013102;28;20463;-66
2023/06/28 12:48:55;;;;;;;4.63;3.03;;;28.10;72.70;;;;;;5014137;28;20459;-66
2023/06/28 12:51:23;;;;;;;3.87;2.80;;;28.40;73.50;;;;;;5014060;28;20460;-65
2023/06/28 12:53:53;;;;;;;4.80;3.23;;;28.90;71.40;;;;;;5012969;28;20500;-66